Terminal Aerodrome Forecast
Issued by NWS

Home | Current Version | Previous Version | Text Only | Print | Product List | Glossary On
Versions: 1 2 3 4 5 6 7 8 9 10 11 12 13 14
000
FTUS44 KEPZ 221700 CCA
TAFLRU
TAF COR
KLRU 221752Z 2218/2318 13007KT P6SM VCTS FEW015 BKN035CB BKN080
      TEMPO 2218/2222 2SM TSRA SCT010 BKN025CB
     FM230000 13010KT P6SM VCTS FEW015 BKN030CB BKN070
      TEMPO 2300/2304 VRB15G25KT 3SM TSRA FEW015 BKN025CB=

USA.gov is the U.S. government's official web portal to all federal, state and local government web resources and services.